Swan Valley, Montana
Current Conditions -  °F | °C
As of 6:53 PM on Monday 20 Oct 2014 (Local Time) from KMSO Reporting Station
Few Clouds Few Clouds  
Wind Chill: 60°   Ceiling: Unl
Heat Index: 60°   Visibility: 8mi
Dew Point: 39°   Wind: 0mph
Humidity: 46%   Direction: NA
Pressure: 29.72"   Gusts: NA
Location:  47.4646°N, 113.701°W
Report Text: KMSO 210053Z 00000KT 8SM FEW120 16/04 A2972 RMK AO2 SLP069 T01560039
Loading
Personal Weather Stations






























Interactive Weather Map
Tropical Storm Tracking
New forecast layout! Learn more

10-Day Weather Forecast

Advertisements
Track Severe Weather on mobile